Brindisi / Casale Airport LIBR

Flugplatz Daten

Name: Brindisi / Casale Airport

Ident: LIBR

Lat: 40,6576004

Long: 17,9470005

Platzhöhe: 47 ft

IataCode: BDS

City: Brindisi

Homepage: http://www.seap-puglia.it/default.asp?idlingua=2&idcontenuto=29

Metar

2022/08/13 17:50
LIBR 131750Z VRB02KT 9999 FEW020 SCT040 22/19 Q1011

Taf

2022/08/13 18:00
TAF LIBR 131700Z 1318/1418 32014KT 9999 SCT015
TEMPO 1318/1322 4000 TSRA
TEMPO 1405/1412 4000 TSRA
Gewünschte Webcam nicht vorhanden? Dann fügen Sie eine hinzu. Sie wird dann so schnell wie möglich freigeschaltet
Url: Title: